Maysville, Oklahoma
Current Conditions -  °F | °C
As of 8:15 AM on Thursday 29 Jan 2015 (Local Time) from KPVJ Reporting Station
Clear Clear  
Wind Chill: 45°   Ceiling: Unl
Heat Index: 49°   Visibility: 10mi
Dew Point: 34°   Wind: 13mph
Humidity: 56%   Direction: 350°N
Pressure: 30.27"   Gusts: NA
Location:  34.82°N, 97.41°W
Report Text: KPVJ 291415Z AUTO 35011KT 10SM CLR 10/01 A3027 RMK AO2 T00970012
Loading
Personal Weather Stations






























Interactive Weather Map New forecast layout! Learn more

10-Day Weather Forecast

Advertisements
Track Severe Weather on mobile